Time;durP1;ratioP1;P1;durP2;ratioP2;P2;SDS_P1;SDS_P2;PMS_P1;PMS_P2;Temp;Humidity;BMP_temperature;BMP_pressure;BME280_temperature;BME280_humidity;BME280_pressure;Samples;Min_cycle;Max_cycle;Signal;HPM_P1;HPM_P2
2022/07/08 00:02:21;;;;;;;7.63;2.05;;;;;;;14.82;71.83;102882.53;5112859;28;20069;-88
2022/07/08 00:04:47;;;;;;;9.80;1.73;;;;;;;14.81;71.52;102883.59;5096201;28;20072;-88
2022/07/08 00:07:12;;;;;;;13.87;1.90;;;;;;;14.82;71.51;102885.25;5113097;28;20032;-88
2022/07/08 00:09:39;;;;;;;7.68;1.55;;;;;;;14.77;71.84;102883.09;5096082;28;20032;-88
2022/07/08 00:12:04;;;;;;;9.55;2.08;;;;;;;14.74;71.85;102887.06;5113917;28;20028;-88
2022/07/08 00:14:30;;;;;;;6.87;1.43;;;;;;;14.73;71.73;102890.00;5112553;28;20051;-88
2022/07/08 00:16:58;;;;;;;7.83;1.83;;;;;;;14.71;71.89;102879.25;5112918;28;20024;-88
2022/07/08 00:19:24;;;;;;;9.60;1.90;;;;;;;14.67;71.58;102885.31;5113907;28;20038;-88
2022/07/08 00:21:49;;;;;;;8.47;1.87;;;;;;;14.69;72.22;102888.69;5112638;28;20031;-88
2022/07/08 00:24:16;;;;;;;10.77;1.90;;;;;;;14.63;72.03;102890.31;5113022;28;20403;-88
2022/07/08 00:26:44;;;;;;;11.32;1.90;;;;;;;14.59;71.98;102891.72;5095707;28;20077;-88
2022/07/08 00:29:15;;;;;;;10.00;1.93;;;;;;;14.54;72.25;102883.22;5096200;28;20096;-88
2022/07/08 00:31:41;;;;;;;6.68;1.67;;;;;;;14.56;72.38;102884.75;5113969;28;20031;-88
2022/07/08 00:34:07;;;;;;;7.75;1.92;;;;;;;14.51;72.42;102883.63;5114132;28;20123;-88
2022/07/08 00:36:42;;;;;;;;;;;;;;;;;;;;;
2022/07/08 00:39:08;;;;;;;9.32;2.05;;;;;;;14.41;73.04;102877.63;5113852;28;20040;-88
2022/07/08 00:41:33;;;;;;;10.77;1.80;;;;;;;14.44;73.07;102894.47;5113763;28;20436;-89
2022/07/08 00:43:59;;;;;;;9.87;1.70;;;;;;;14.46;72.99;102891.56;5096595;28;20468;-88
2022/07/08 00:46:27;;;;;;;12.27;2.45;;;;;;;14.43;73.02;102889.22;5114040;28;20485;-88
2022/07/08 00:48:52;;;;;;;8.63;1.80;;;;;;;14.31;73.16;102886.97;5112919;28;20038;-88
2022/07/08 00:51:18;;;;;;;9.18;2.33;;;;;;;14.22;73.94;102888.09;5112337;28;20035;-88
2022/07/08 00:53:50;;;;;;;6.70;2.20;;;;;;;14.11;74.12;102891.31;5112674;28;20118;-88
2022/07/08 00:56:16;;;;;;;11.88;2.30;;;;;;;14.03;75.71;102886.81;5113911;28;20036;-87
2022/07/08 00:58:45;;;;;;;9.80;2.17;;;;;;;13.97;74.91;102895.75;5112254;28;20085;-88
2022/07/08 01:01:10;;;;;;;7.57;1.90;;;;;;;13.90;75.09;102894.81;5112580;28;20452;-88
2022/07/08 01:03:36;;;;;;;9.30;1.97;;;;;;;13.81;75.81;102892.16;5112127;28;20133;-88
2022/07/08 01:06:01;;;;;;;11.63;2.13;;;;;;;13.73;76.06;102889.53;5112458;28;20046;-88
2022/07/08 01:08:27;;;;;;;9.80;2.05;;;;;;;13.65;76.75;102900.50;5112005;28;20063;-88
2022/07/08 01:10:52;;;;;;;13.13;2.43;;;;;;;13.58;76.93;102894.09;5095636;28;20031;-88
2022/07/08 01:13:18;;;;;;;10.57;2.35;;;;;;;13.49;76.98;102894.19;5116698;28;20030;-88
2022/07/08 01:15:47;;;;;;;15.10;3.10;;;;;;;13.45;77.61;102900.19;5136070;27;20050;-88
2022/07/08 01:18:24;;;;;;;13.75;2.67;;;;;;;13.37;77.42;102892.09;5137933;27;20031;-88
2022/07/08 01:20:52;;;;;;;9.10;2.13;;;;;;;13.33;78.15;102886.09;5120124;27;20031;-88
2022/07/08 01:23:18;;;;;;;15.57;2.05;;;;;;;13.27;78.74;102895.03;5138080;27;20027;-87
2022/07/08 01:25:48;;;;;;;8.40;2.30;;;;;;;13.21;79.18;102884.88;5119590;27;20022;-88
2022/07/08 01:28:22;;;;;;;8.40;2.22;;;;;;;13.18;78.57;102891.53;5138224;27;20031;-88
2022/07/08 01:30:51;;;;;;;13.30;2.78;;;;;;;13.14;79.91;102901.13;5138411;27;20050;-88
2022/07/08 01:33:17;;;;;;;8.55;2.50;;;;;;;13.05;79.94;102894.00;5119272;27;20031;-88
2022/07/08 01:35:42;;;;;;;9.93;2.63;;;;;;;13.00;80.37;102894.56;5138499;27;20471;-88
2022/07/08 01:38:08;;;;;;;14.93;2.50;;;;;;;12.95;80.79;102891.56;5119341;27;20023;-88
2022/07/08 01:40:33;;;;;;;10.10;2.30;;;;;;;12.89;80.97;102898.56;5102868;27;20035;-88
2022/07/08 01:43:01;;;;;;;12.97;2.30;;;;;;;12.84;80.74;102889.22;5119260;27;20019;-88
2022/07/08 01:45:26;;;;;;;5.80;2.22;;;;;;;12.79;80.86;102896.06;5119593;27;20523;-88
2022/07/08 01:47:54;;;;;;;13.47;2.57;;;;;;;12.73;81.53;102887.78;5137378;27;20034;-88
2022/07/08 01:50:22;;;;;;;8.18;2.60;;;;;;;12.67;82.28;102893.94;5119136;27;20080;-88
2022/07/08 01:52:47;;;;;;;14.43;3.10;;;;;;;12.64;83.31;102885.09;5137974;27;20023;-88
2022/07/08 01:55:13;;;;;;;7.72;2.55;;;;;;;12.59;83.22;102883.94;5137758;27;20375;-88
2022/07/08 01:57:41;;;;;;;12.13;2.90;;;;;;;12.55;83.41;102880.72;5118954;27;20032;-88
2022/07/08 02:00:07;;;;;;;10.75;2.90;;;;;;;12.53;83.68;102874.59;5118741;27;20050;-88
2022/07/08 02:02:32;;;;;;;13.88;3.38;;;;;;;12.48;84.24;102878.91;5137330;27;20026;-88
2022/07/08 02:05:08;;;;;;;15.53;3.20;;;;;;;12.47;84.34;102888.94;5118794;27;20042;-88
2022/07/08 02:07:34;;;;;;;9.88;2.80;;;;;;;12.42;84.49;102884.03;5119139;27;20031;-88
2022/07/08 02:10:00;;;;;;;11.07;3.07;;;;;;;12.47;85.37;102894.38;5119096;27;20031;-88
2022/07/08 02:12:30;;;;;;;9.93;3.05;;;;;;;12.51;84.10;102886.72;5119497;27;20027;-88
2022/07/08 02:15:01;;;;;;;9.65;2.58;;;;;;;12.54;83.78;102889.09;5101677;27;20090;-88
2022/07/08 02:17:28;;;;;;;8.50;2.90;;;;;;;12.57;83.33;102894.16;5137606;27;20054;-88
2022/07/08 02:19:54;;;;;;;9.60;2.70;;;;;;;12.62;83.56;102891.75;5137027;27;20027;-88
2022/07/08 02:22:22;;;;;;;16.07;3.37;;;;;;;12.63;84.06;102893.44;5118011;27;20015;-88
2022/07/08 02:24:53;;;;;;;16.92;2.78;;;;;;;12.65;83.36;102894.09;5118100;27;20487;-88
2022/07/08 02:27:19;;;;;;;9.63;3.17;;;;;;;12.67;82.82;102902.97;5136607;27;20042;-87
2022/07/08 02:29:45;;;;;;;8.00;2.80;;;;;;;12.71;83.33;102898.00;5118109;27;20027;-88
2022/07/08 02:32:10;;;;;;;7.50;2.80;;;;;;;12.71;83.03;102885.25;5118054;27;20459;-88
2022/07/08 02:34:36;;;;;;;10.23;2.75;;;;;;;12.73;83.05;102894.06;5118002;27;20055;-88
2022/07/08 02:37:02;;;;;;;8.87;2.53;;;;;;;12.78;82.84;102901.69;5117939;27;20077;-88
2022/07/08 02:39:28;;;;;;;11.45;3.20;;;;;;;12.78;82.77;102888.94;5118204;27;20065;-87
2022/07/08 02:41:59;;;;;;;11.10;3.10;;;;;;;12.79;83.24;102892.50;5101069;27;20059;-88
2022/07/08 02:44:25;;;;;;;10.20;2.65;;;;;;;12.78;83.27;102894.38;5118081;27;20035;-88
2022/07/08 02:46:50;;;;;;;10.90;2.43;;;;;;;12.76;83.04;102898.31;5118889;27;20027;-88
2022/07/08 02:49:16;;;;;;;11.73;2.50;;;;;;;12.76;83.01;102898.31;5117999;27;20704;-88
2022/07/08 02:51:41;;;;;;;8.33;2.67;;;;;;;12.75;83.34;102888.44;5117626;27;20023;-88
2022/07/08 02:54:07;;;;;;;8.43;2.50;;;;;;;12.71;83.06;102896.13;5136882;27;20524;-88
2022/07/08 02:56:33;;;;;;;8.40;2.60;;;;;;;12.67;83.19;102885.75;5135996;27;20485;-88
2022/07/08 02:59:02;;;;;;;9.38;2.47;;;;;;;12.61;83.50;102890.91;5100920;27;20104;-88
2022/07/08 03:01:28;;;;;;;11.13;2.03;;;;;;;12.60;83.66;102896.53;5117623;27;20459;-88
2022/07/08 03:03:54;;;;;;;9.63;3.05;;;;;;;12.58;84.16;102895.88;5117590;27;20030;-88
2022/07/08 03:06:19;;;;;;;9.87;2.53;;;;;;;12.58;84.34;102894.00;5100346;27;20038;-88
2022/07/08 03:08:47;;;;;;;13.53;2.67;;;;;;;12.52;84.67;102902.00;5117248;27;20031;-88
2022/07/08 03:11:15;;;;;;;8.93;2.90;;;;;;;12.51;84.58;102903.91;5136290;27;20030;-88
2022/07/08 03:13:41;;;;;;;6.75;2.33;;;;;;;12.52;84.42;102905.59;5135708;27;20034;-87
2022/07/08 03:16:09;;;;;;;9.20;2.60;;;;;;;12.52;84.26;102902.88;5117174;27;20387;-88
2022/07/08 03:18:37;;;;;;;8.23;2.20;;;;;;;12.55;84.42;102910.69;5100488;27;20136;-88
2022/07/08 03:21:03;;;;;;;8.93;2.50;;;;;;;12.53;84.25;102910.00;5100929;27;20039;-88
2022/07/08 03:23:32;;;;;;;12.18;2.50;;;;;;;12.57;83.78;102919.50;5117710;27;20424;-88
2022/07/08 03:25:57;;;;;;;8.63;2.28;;;;;;;12.53;83.98;102906.44;5083647;27;20039;-88
2022/07/08 03:28:25;;;;;;;14.70;2.60;;;;;;;12.48;84.39;102901.53;5118084;27;20039;-88
2022/07/08 03:30:53;;;;;;;11.45;2.70;;;;;;;12.43;84.89;102899.34;5117385;27;20037;-88
2022/07/08 03:33:18;;;;;;;11.93;2.55;;;;;;;12.40;84.53;102907.00;5117467;27;20356;-88
2022/07/08 03:35:44;;;;;;;10.90;2.80;;;;;;;12.31;84.29;102905.34;5100117;27;20038;-88
2022/07/08 03:38:09;;;;;;;8.70;2.60;;;;;;;12.30;84.61;102920.84;5135177;27;20105;-88
2022/07/08 03:43:19;;;;;;;16.35;2.33;;;;;;;12.22;84.72;102920.88;5119683;27;20492;-88
2022/07/08 03:45:44;;;;;;;9.82;2.35;;;;;;;12.21;85.56;102930.03;5116640;27;20067;-88
2022/07/08 03:48:10;;;;;;;10.67;2.20;;;;;;;12.15;85.69;102912.56;5116603;27;20129;-88
2022/07/08 03:50:39;;;;;;;7.00;1.83;;;;;;;12.13;86.14;102913.75;5116600;27;20031;-88
2022/07/08 03:53:04;;;;;;;13.15;2.60;;;;;;;12.13;86.50;102911.88;5117155;27;20035;-88
2022/07/08 03:55:32;;;;;;;7.93;2.27;;;;;;;12.13;87.86;102911.88;5099768;27;20491;-89
2022/07/08 03:57:58;;;;;;;9.63;2.38;;;;;;;12.12;87.09;102912.94;5100571;27;20188;-88
2022/07/08 04:00:23;;;;;;;11.52;2.30;;;;;;;12.06;87.60;102910.88;5116427;27;20475;-88
2022/07/08 04:02:49;;;;;;;7.80;2.50;;;;;;;12.03;87.24;102909.38;5116511;27;20114;-88
2022/07/08 04:05:16;;;;;;;7.45;2.45;;;;;;;12.08;87.63;102917.84;5117473;27;20051;-88
2022/07/08 04:07:42;;;;;;;6.40;2.22;;;;;;;12.07;88.02;102918.88;5134677;27;20463;-88
2022/07/08 04:10:08;;;;;;;9.87;2.47;;;;;;;12.05;87.38;102906.47;5135470;27;20027;-88
2022/07/08 04:12:33;;;;;;;11.98;2.83;;;;;;;12.04;87.36;102912.94;5116356;28;20042;-88
2022/07/08 04:14:59;;;;;;;8.37;2.50;;;;;;;12.03;87.30;102920.25;5116115;27;20043;-88
2022/07/08 04:17:25;;;;;;;12.85;2.90;;;;;;;12.03;88.39;102909.38;5116063;27;20034;-88
2022/07/08 04:19:53;;;;;;;10.38;2.80;;;;;;;12.03;87.93;102920.25;5117198;27;20034;-88
2022/07/08 04:22:18;;;;;;;10.03;3.00;;;;;;;12.00;87.95;102912.44;5116849;27;20075;-88
2022/07/08 04:24:46;;;;;;;13.15;3.00;;;;;;;12.03;87.76;102924.84;5116884;28;20035;-88
2022/07/08 04:27:20;;;;;;;11.95;2.70;;;;;;;11.99;88.09;102913.47;5116620;28;20118;-88
2022/07/08 04:29:45;;;;;;;10.53;3.10;;;;;;;11.99;88.14;102915.31;5099995;28;20027;-88
2022/07/08 04:32:14;;;;;;;10.50;3.17;;;;;;;12.01;87.61;102925.00;5116564;28;20039;-88
2022/07/08 04:34:39;;;;;;;10.53;3.47;;;;;;;12.02;88.58;102925.88;5117134;28;20035;-88
2022/07/08 04:37:05;;;;;;;10.82;3.13;;;;;;;12.04;88.59;102927.38;5134397;28;20106;-88
2022/07/08 04:39:30;;;;;;;10.40;3.30;;;;;;;12.05;88.64;102925.53;5116446;28;20038;-89
2022/07/08 04:41:55;;;;;;;18.00;3.40;;;;;;;12.13;89.09;102932.81;5116046;28;20034;-88
2022/07/08 04:44:21;;;;;;;15.33;3.70;;;;;;;12.13;88.24;102936.38;5115643;28;20134;-89
2022/07/08 04:46:46;;;;;;;11.55;3.20;;;;;;;12.13;87.55;102949.13;5117836;27;20458;-88
2022/07/08 04:49:14;;;;;;;15.50;3.73;;;;;;;12.09;88.00;102952.22;5120293;27;20027;-88
2022/07/08 04:51:39;;;;;;;14.70;3.70;;;;;;;12.07;88.04;102946.06;5138426;27;20069;-88
2022/07/08 04:54:07;;;;;;;9.60;3.70;;;;;;;12.10;88.25;102940.28;5119896;27;20058;-88
2022/07/08 04:56:33;;;;;;;10.52;4.00;;;;;;;12.13;88.28;102943.69;5102874;27;20031;-88
2022/07/08 04:58:58;;;;;;;15.83;4.47;;;;;;;12.23;88.17;102960.66;5119835;27;20435;-88
2022/07/08 05:01:31;;;;;;;14.30;4.20;;;;;;;12.26;88.31;102955.72;5121017;27;20045;-88
2022/07/08 05:03:59;;;;;;;12.40;3.90;;;;;;;12.30;87.83;102956.22;5120155;27;20405;-88
2022/07/08 05:06:24;;;;;;;17.58;4.18;;;;;;;12.37;87.40;102954.50;5138075;27;20113;-88
2022/07/08 05:08:49;;;;;;;11.13;3.80;;;;;;;12.46;87.60;102960.78;5120008;27;20111;-88
2022/07/08 05:11:15;;;;;;;9.23;3.67;;;;;;;12.50;86.99;102958.53;5102945;27;20031;-88
2022/07/08 05:13:40;;;;;;;14.10;3.65;;;;;;;12.56;86.64;102955.97;5103306;27;20038;-86
2022/07/08 05:16:06;;;;;;;15.80;3.63;;;;;;;12.62;86.03;102962.53;5102614;27;20054;-87
2022/07/08 05:18:32;;;;;;;9.13;3.20;;;;;;;12.67;86.00;102957.44;5138205;27;20027;-87
2022/07/08 05:20:57;;;;;;;12.10;3.45;;;;;;;12.75;86.08;102959.25;5119840;27;20027;-87
2022/07/08 05:23:23;;;;;;;10.43;3.33;;;;;;;12.82;84.78;102968.41;5119162;27;20050;-87
2022/07/08 05:25:53;;;;;;;11.03;3.23;;;;;;;12.89;84.58;102957.63;5137784;27;20398;-86
2022/07/08 05:28:21;;;;;;;11.52;3.38;;;;;;;12.95;84.49;102970.56;5102655;27;20466;-86
2022/07/08 05:30:47;;;;;;;8.27;3.17;;;;;;;13.05;84.31;102979.38;5103212;27;20078;-87
2022/07/08 05:33:12;;;;;;;13.23;3.57;;;;;;;13.08;84.08;102976.28;5102406;27;20031;-83
2022/07/08 05:35:46;;;;;;;10.98;4.10;;;;;;;13.16;83.86;102978.94;5137417;27;20028;-84
2022/07/08 05:38:12;;;;;;;16.60;4.60;;;;;;;13.30;83.77;102971.00;5119903;27;20445;-84
2022/07/08 05:40:38;;;;;;;11.82;3.60;;;;;;;13.41;83.62;102983.41;5137956;27;20110;-84
2022/07/08 05:43:04;;;;;;;7.57;3.47;;;;;;;13.48;83.06;102985.22;5118869;27;20027;-84
2022/07/08 05:45:32;;;;;;;8.87;3.80;;;;;;;13.54;83.05;102986.38;5101918;27;20042;-83
2022/07/08 05:47:57;;;;;;;13.43;4.00;;;;;;;13.61;83.09;102986.47;5119025;27;20026;-84
2022/07/08 05:50:23;;;;;;;9.00;3.60;;;;;;;13.67;83.37;102985.72;5101604;27;20027;-84
2022/07/08 05:52:48;;;;;;;14.90;3.40;;;;;;;13.77;81.72;102982.75;5102407;27;20031;-84
2022/07/08 05:55:14;;;;;;;17.33;4.03;;;;;;;13.81;81.74;102984.91;5119142;27;20035;-85
2022/07/08 05:57:43;;;;;;;8.73;3.63;;;;;;;13.90;81.42;102996.59;5117860;28;20027;-85
2022/07/08 06:00:09;;;;;;;10.10;3.30;;;;;;;13.93;81.70;102995.41;5118510;27;20023;-85
2022/07/08 06:02:34;;;;;;;15.40;3.45;;;;;;;13.97;80.71;102997.56;5117899;27;20364;-84
2022/07/08 06:04:59;;;;;;;12.17;3.30;;;;;;;14.06;80.46;102994.75;5118446;27;20030;-85
2022/07/08 06:07:25;;;;;;;9.80;3.20;;;;;;;14.12;81.30;102994.84;5102009;27;20039;-84
2022/07/08 06:09:53;;;;;;;8.30;2.90;;;;;;;14.18;80.50;102996.81;5118314;27;20046;-84
2022/07/08 06:12:18;;;;;;;11.63;2.40;;;;;;;14.23;79.69;103007.19;5118503;27;20379;-84
2022/07/08 06:14:44;;;;;;;12.38;2.60;;;;;;;14.32;79.29;102994.28;5118497;27;20051;-85
2022/07/08 06:17:10;;;;;;;14.83;2.23;;;;;;;14.33;78.83;102996.84;5136905;27;20426;-85
2022/07/08 06:19:38;;;;;;;6.87;1.83;;;;;;;14.35;78.83;103002.97;5101074;27;20066;-84
2022/07/08 06:22:08;;;;;;;10.18;2.08;;;;;;;14.43;78.73;103010.22;5118127;27;20069;-85
2022/07/08 06:24:36;;;;;;;10.90;2.05;;;;;;;14.53;78.83;103008.03;5118572;27;20054;-85
2022/07/08 06:27:02;;;;;;;7.63;1.73;;;;;;;14.58;78.24;103010.19;5136357;27;20035;-84
2022/07/08 06:29:27;;;;;;;11.13;2.33;;;;;;;14.64;77.89;103005.91;5118560;27;20123;-84
2022/07/08 06:31:53;;;;;;;10.35;1.55;;;;;;;14.69;77.91;102996.09;5117684;27;20491;-84
2022/07/08 06:34:19;;;;;;;9.70;2.07;;;;;;;14.72;77.43;103003.91;5101779;27;20039;-84
2022/07/08 06:36:44;;;;;;;8.27;1.83;;;;;;;14.77;77.29;102997.03;5118016;27;20027;-84
2022/07/08 06:39:09;;;;;;;7.68;1.80;;;;;;;14.87;77.16;103001.16;5117887;27;20038;-84
2022/07/08 06:41:35;;;;;;;13.97;1.67;;;;;;;14.93;76.11;103004.19;5118149;27;20091;-84
2022/07/08 06:44:01;;;;;;;9.03;1.73;;;;;;;14.97;76.45;102995.41;5117930;27;20133;-84
2022/07/08 06:46:26;;;;;;;8.35;1.73;;;;;;;15.00;75.72;103000.47;5101663;27;20463;-84
2022/07/08 06:48:52;;;;;;;11.90;2.50;;;;;;;15.05;75.80;103002.63;5136599;27;20042;-84
2022/07/08 06:51:18;;;;;;;9.10;1.90;;;;;;;15.16;74.40;103004.88;5136202;27;20027;-84
2022/07/08 06:56:27;;;;;;;8.57;1.83;;;;;;;15.34;74.39;103006.28;5136610;27;20077;-84
2022/07/08 06:58:53;;;;;;;11.20;2.00;;;;;;;15.32;72.74;103003.75;5100514;27;20027;-84
2022/07/08 07:01:18;;;;;;;12.50;2.10;;;;;;;15.36;73.85;103010.53;5136420;27;20031;-84
2022/07/08 07:03:46;;;;;;;9.00;1.40;;;;;;;15.43;73.27;103010.59;5100645;27;20588;-84
2022/07/08 07:06:14;;;;;;;9.53;1.60;;;;;;;15.51;72.82;103007.72;5117722;27;20080;-84
2022/07/08 07:08:46;;;;;;;10.75;1.83;;;;;;;15.56;73.39;103016.22;5101192;27;20038;-84
2022/07/08 07:11:12;;;;;;;10.55;1.40;;;;;;;15.61;72.48;103010.97;5117200;27;20035;-84
2022/07/08 07:13:47;;;;;;;11.53;1.80;;;;;;;15.74;71.78;103014.88;5099954;27;20387;-84
2022/07/08 07:16:16;;;;;;;10.43;1.33;;;;;;;15.85;71.23;103017.09;5117148;27;20374;-84
2022/07/08 07:18:41;;;;;;;9.05;1.60;;;;;;;15.92;71.34;103014.44;5117261;27;20466;-84
2022/07/08 07:21:18;;;;;;;11.13;1.50;;;;;;;15.96;71.01;103016.56;5100141;27;20037;-84
2022/07/08 07:23:46;;;;;;;10.57;1.65;;;;;;;16.00;70.77;103019.75;5099403;27;20356;-84
2022/07/08 07:26:12;;;;;;;11.00;1.70;;;;;;;16.04;69.85;103017.47;5135658;27;20432;-84
2022/07/08 07:28:40;;;;;;;9.13;1.50;;;;;;;16.06;70.82;103010.75;5117042;27;20467;-84
2022/07/08 07:31:08;;;;;;;8.23;1.52;;;;;;;16.12;71.22;103020.03;5117372;27;20038;-84
2022/07/08 07:33:33;;;;;;;7.15;1.73;;;;;;;16.12;70.26;103017.31;5100100;27;20039;-84
2022/07/08 07:35:59;;;;;;;8.27;1.30;;;;;;;16.09;70.09;103014.97;5116997;27;20042;-84
2022/07/08 07:38:25;;;;;;;8.73;1.60;;;;;;;16.05;69.53;103008.22;5116878;27;20100;-84
2022/07/08 07:40:50;;;;;;;8.95;1.65;;;;;;;16.07;69.84;103011.59;5117076;27;20451;-84
2022/07/08 07:43:16;;;;;;;8.67;1.93;;;;;;;16.18;70.67;103012.94;5135095;27;20095;-84
2022/07/08 07:45:44;;;;;;;9.67;1.70;;;;;;;16.24;71.81;103018.47;5135258;27;20053;-84
2022/07/08 07:48:10;;;;;;;11.00;1.65;;;;;;;16.25;69.59;103011.06;5134851;27;20471;-84
2022/07/08 07:50:37;;;;;;;9.02;1.88;;;;;;;16.33;69.51;103012.81;5116200;27;20027;-84
2022/07/08 07:53:03;;;;;;;10.68;1.77;;;;;;;16.43;69.02;103018.75;5099590;27;20035;-84
2022/07/08 07:55:28;;;;;;;8.20;1.67;;;;;;;16.49;68.22;103012.50;5134574;27;20171;-84
2022/07/08 07:57:57;;;;;;;7.27;1.70;;;;;;;16.46;67.40;103013.75;5100065;27;20515;-83
2022/07/08 08:00:23;;;;;;;10.43;1.50;;;;;;;16.45;68.90;103011.22;5116542;27;20027;-84
2022/07/08 08:02:48;;;;;;;9.03;1.90;;;;;;;16.42;68.21;103003.41;5116464;27;20440;-84
2022/07/08 08:05:14;;;;;;;8.48;2.25;;;;;;;16.39;68.80;103001.06;5116423;27;20096;-84
2022/07/08 08:07:44;;;;;;;7.33;1.90;;;;;;;16.43;69.57;103010.56;5116016;27;20035;-84
2022/07/08 08:10:13;;;;;;;11.25;2.17;;;;;;;16.45;69.14;103009.31;5117071;28;20347;-85
2022/07/08 08:12:40;;;;;;;8.27;1.55;;;;;;;16.58;68.55;103016.75;5134763;27;20031;-84
2022/07/08 08:15:06;;;;;;;9.20;1.90;;;;;;;16.76;67.45;103018.94;5135197;27;20496;-87
2022/07/08 08:17:39;;;;;;;12.00;2.40;;;;;;;16.84;67.38;103017.91;5116265;27;20476;-85
2022/07/08 08:20:09;;;;;;;7.38;2.00;;;;;;;16.84;67.60;103015.19;5134767;27;20038;-84
2022/07/08 08:22:35;;;;;;;7.60;1.58;;;;;;;16.89;67.69;103009.97;5115610;27;20038;-84
2022/07/08 08:25:03;;;;;;;11.02;1.67;;;;;;;16.93;67.54;103005.78;5098821;28;20031;-84
2022/07/08 08:27:29;;;;;;;7.70;1.83;;;;;;;17.05;66.96;103011.50;5116246;28;20019;-85
2022/07/08 08:29:57;;;;;;;12.83;2.10;;;;;;;17.12;66.59;103022.47;5115906;28;20023;-85
2022/07/08 08:32:26;;;;;;;8.35;2.15;;;;;;;17.17;67.88;103009.84;5116704;28;20027;-84
2022/07/08 08:34:53;;;;;;;8.73;1.80;;;;;;;17.14;66.20;103021.22;5116100;28;20028;-85
2022/07/08 08:37:19;;;;;;;4.65;1.67;;;;;;;17.03;66.30;103013.59;5082779;28;20424;-85
2022/07/08 09:13:50;;;;;;;9.32;2.17;;;;;;;17.85;63.68;102994.28;5019800;28;20046;-94
2022/07/08 09:16:46;;;;;;;;;;;;;;;;;;;;;
2022/07/08 09:19:49;;;;;;;9.80;2.10;;;;;;;18.06;62.43;102990.50;5143767;28;20095;-94
2022/07/08 09:22:37;;;;;;;;;;;;;;;;;;;;;
2022/07/08 09:27:58;;;;;;;7.63;2.30;;;;;;;18.46;61.40;102998.63;5132048;28;20039;-96
2022/07/08 09:30:29;;;;;;;11.63;2.05;;;;;;;18.66;61.92;102987.59;5134898;28;20033;-96
2022/07/08 09:33:06;;;;;;;10.70;2.15;;;;;;;18.83;60.71;102984.31;5136654;27;20027;-96
2022/07/08 09:35:39;;;;;;;12.23;2.60;;;;;;;18.97;59.96;102982.38;5120743;27;20038;-96
2022/07/08 09:38:09;;;;;;;8.63;2.15;;;;;;;19.05;60.05;102993.13;5104825;27;20031;-96
2022/07/08 09:40:38;;;;;;;11.15;2.45;;;;;;;19.03;58.78;102987.84;5121647;27;20061;-96
2022/07/08 09:43:13;;;;;;;9.90;2.65;;;;;;;18.93;59.27;102981.97;5138507;27;20027;-96
2022/07/08 09:45:42;;;;;;;10.85;2.50;;;;;;;19.19;59.92;102982.88;5120770;27;20035;-96
2022/07/08 09:48:10;;;;;;;6.70;2.17;;;;;;;19.41;58.50;102972.34;5139924;27;20034;-96
2022/07/08 09:50:49;;;;;;;9.07;2.28;;;;;;;19.83;58.30;102980.94;5120003;27;20146;-96
2022/07/08 09:53:24;;;;;;;10.07;2.25;;;;;;;20.35;57.78;102979.78;5120160;27;20412;-96
2022/07/08 09:55:55;;;;;;;9.00;2.00;;;;;;;20.91;55.40;102988.84;5139008;27;20035;-96
2022/07/08 09:58:28;;;;;;;8.48;1.98;;;;;;;21.13;52.96;102987.25;5120110;27;20053;-96
2022/07/08 10:01:00;;;;;;;7.00;1.87;;;;;;;21.42;53.39;102986.59;5103447;27;20031;-96
2022/07/08 10:03:43;;;;;;;;;;;;;;;;;;;;;
2022/07/08 10:06:10;;;;;;;7.47;2.00;;;;;;;21.69;51.19;102984.28;5138948;27;20463;-96
2022/07/08 10:08:39;;;;;;;9.48;1.90;;;;;;;22.46;50.52;102994.34;5119905;27;20028;-96
2022/07/08 10:11:14;;;;;;;9.73;2.20;;;;;;;23.06;48.47;102987.53;5120389;27;20024;-95
2022/07/08 10:13:44;;;;;;;7.97;1.93;;;;;;;23.61;46.71;102990.72;5118698;27;20039;-96
2022/07/08 10:16:11;;;;;;;9.73;2.05;;;;;;;24.15;45.34;103001.25;5119731;27;20027;-96
2022/07/08 10:18:41;;;;;;;6.47;1.98;;;;;;;24.36;44.42;102991.31;5119795;27;20054;-96
2022/07/08 10:21:11;;;;;;;7.80;2.13;;;;;;;24.41;44.39;102980.25;5119036;27;20061;-96
2022/07/08 10:23:42;;;;;;;5.53;2.10;;;;;;;24.62;45.08;102986.09;5118783;27;20114;-96
2022/07/08 10:26:09;;;;;;;8.63;2.43;;;;;;;24.55;43.62;102988.19;5119835;27;20031;-96
2022/07/08 10:28:39;;;;;;;9.43;2.00;;;;;;;24.64;43.28;102981.97;5136807;27;20062;-96
2022/07/08 10:31:21;;;;;;;6.93;2.10;;;;;;;25.14;44.63;102982.78;5119089;27;20019;-96
2022/07/08 10:33:50;;;;;;;6.45;2.15;;;;;;;25.41;42.20;102976.41;5118614;27;20125;-96
2022/07/08 10:36:22;;;;;;;10.38;2.50;;;;;;;25.68;42.52;102972.72;5119103;27;20114;-96
2022/07/08 10:38:49;;;;;;;9.03;2.33;;;;;;;25.44;41.60;102986.13;5119348;27;20122;-95
2022/07/08 10:41:26;;;;;;;6.35;1.95;;;;;;;25.01;43.48;102969.34;5139036;27;20493;-96
2022/07/08 10:44:08;;;;;;;6.30;1.70;;;;;;;24.65;43.71;102966.97;5125535;27;20032;-96
2022/07/08 10:46:50;;;;;;;10.52;2.22;;;;;;;24.42;44.07;102976.41;5124649;27;20073;-96
2022/07/08 10:49:24;;;;;;;5.85;2.13;;;;;;;24.26;44.56;102982.84;5123244;27;20536;-96
2022/07/08 10:51:50;;;;;;;5.63;2.13;;;;;;;24.34;44.91;102974.06;5142591;27;20085;-96
2022/07/08 10:54:49;;;;;;;10.35;2.45;;;;;;;24.28;45.06;102962.06;5142578;27;20024;-96
2022/07/08 10:57:35;;;;;;;8.07;2.08;;;;;;;24.10;45.83;102968.75;5122065;28;20042;-96
2022/07/08 11:00:14;;;;;;;7.97;2.10;;;;;;;24.15;45.33;102977.16;5123117;27;20046;-96
2022/07/08 11:02:46;;;;;;;9.48;1.90;;;;;;;24.32;45.39;102974.31;5150528;27;20031;-96
2022/07/08 11:06:10;;;;;;;;;;;;;;;;;;;;;
2022/07/08 11:09:17;;;;;;;7.53;2.05;;;;;;;24.97;43.79;102990.38;5117755;27;20153;-92
2022/07/08 11:19:08;;;;;;;5.90;1.80;;;;;;;26.69;40.39;102972.72;5055530;28;20609;-92
2022/07/08 11:22:10;;;;;;;;;;;;;;;;;;;;;
2022/07/08 11:24:57;;;;;;;6.68;2.40;;;;;;;28.72;35.73;102959.94;5109813;28;20038;-92
2022/07/08 11:27:35;;;;;;;7.80;2.42;;;;;;;30.42;33.93;102961.19;5096377;28;20028;-93
2022/07/08 11:30:21;;;;;;;;;;;;;;;;;;;;;
2022/07/08 11:33:08;;;;;;;;;;;;;;;;;;;;;
2022/07/08 11:35:42;;;;;;;7.18;2.38;;;;;;;38.68;23.59;102956.09;5098173;28;20037;-93
2022/07/08 12:37:27;;;;;;;6.97;4.38;;;;;;;49.03;13.61;102896.31;4967664;28;20053;-94
2022/07/08 12:45:07;;;;;;;;;;;;;;;;;;;;;
2022/07/08 14:37:04;;;;;;;8.23;4.63;;;;;;;46.22;14.66;102813.09;4901688;28;20097;-94
2022/07/08 14:43:43;;;;;;;;;;;;;;;;;;;;;
2022/07/08 15:13:54;;;;;;;7.63;3.20;;;;;;;32.38;28.71;102801.38;4971093;28;20038;-93
2022/07/08 15:34:19;;;;;;;9.07;2.77;;;;;;;29.30;33.73;102790.72;4859977;29;20041;-94
2022/07/08 15:50:31;;;;;;;;;;;;;;;;;;;;;
2022/07/08 15:59:47;;;;;;;4.28;2.05;;;;;;;34.25;25.01;102781.78;4915693;29;20457;-91
2022/07/08 16:02:25;;;;;;;;;;;;;;;;;;;;;
2022/07/08 16:11:37;;;;;;;;;;;;;;;;;;;;;
2022/07/08 16:14:19;;;;;;;6.07;1.92;;;;;;;31.50;28.78;102765.97;5012330;28;20040;-91
2022/07/08 16:16:55;;;;;;;4.60;2.08;;;;;;;31.51;29.18;102778.03;5021076;28;20038;-90
2022/07/08 16:19:24;;;;;;;3.73;1.90;;;;;;;31.56;28.78;102778.78;5047898;28;20040;-90
2022/07/08 16:21:56;;;;;;;3.78;1.90;;;;;;;31.36;29.11;102763.19;5047968;27;20483;-90
2022/07/08 16:24:42;;;;;;;5.75;2.10;;;;;;;31.27;29.00;102773.47;5115965;28;20126;-90
2022/07/08 16:27:20;;;;;;;;;;;;;;;;;;;;;
2022/07/08 16:29:54;;;;;;;3.35;2.42;;;;;;;30.96;29.62;102768.44;5118477;27;20041;-91
2022/07/08 16:32:42;;;;;;;7.43;2.37;;;;;;;30.85;29.94;102750.97;5116295;27;20035;-92
2022/07/08 16:35:13;;;;;;;7.03;2.30;;;;;;;30.79;30.48;102766.22;5117087;28;20031;-90
2022/07/08 16:37:41;;;;;;;5.75;2.08;;;;;;;30.93;30.57;102747.47;5116756;28;20027;-90
2022/07/08 16:40:10;;;;;;;3.58;2.05;;;;;;;30.89;29.37;102756.81;5134785;28;20035;-90
2022/07/08 16:42:40;;;;;;;3.92;1.95;;;;;;;30.52;29.92;102753.81;5117453;27;20058;-90
2022/07/08 16:45:16;;;;;;;3.53;2.00;;;;;;;30.44;30.28;102754.50;5103989;27;20072;-93
2022/07/08 16:47:44;;;;;;;4.90;2.13;;;;;;;30.69;29.87;102755.19;5121976;27;20408;-90
2022/07/08 16:50:17;;;;;;;4.88;2.17;;;;;;;30.22;30.17;102755.09;5120387;27;20039;-91